createdAt,value
2022-09-16T00:01:12.403Z,100.00
2022-09-16T00:03:55.707Z,100.00
2022-09-16T00:06:25.594Z,100.00
2022-09-16T00:08:56.482Z,100.00
2022-09-16T00:11:24.810Z,100.00
2022-09-16T00:13:52.807Z,100.00
2022-09-16T00:16:23.462Z,100.00
2022-09-16T00:18:56.585Z,100.00
2022-09-16T00:21:25.583Z,100.00
2022-09-16T00:23:53.473Z,100.00
2022-09-16T00:26:21.300Z,100.00
2022-09-16T00:28:49.727Z,100.00
2022-09-16T00:31:18.622Z,100.00
2022-09-16T00:33:47.012Z,100.00
2022-09-16T00:36:18.214Z,100.00
2022-09-16T00:38:46.688Z,100.00
2022-09-16T00:41:17.835Z,100.00
2022-09-16T00:43:51.755Z,100.00
2022-09-16T00:46:24.130Z,100.00
2022-09-16T00:48:52.925Z,100.00
2022-09-16T00:51:25.292Z,100.00
2022-09-16T00:54:00.136Z,100.00
2022-09-16T00:56:30.502Z,100.00
2022-09-16T00:59:04.654Z,100.00
2022-09-16T01:01:33.411Z,100.00
2022-09-16T01:04:05.118Z,100.00
2022-09-16T01:06:39.650Z,100.00
2022-09-16T01:09:08.165Z,100.00
2022-09-16T01:11:36.315Z,100.00
2022-09-16T01:14:23.918Z,100.00
2022-09-16T01:16:59.193Z,100.00
2022-09-16T01:20:00.217Z,100.00
2022-09-16T01:22:45.976Z,100.00
2022-09-16T01:25:28.863Z,100.00
2022-09-16T01:28:19.858Z,100.00
2022-09-16T01:31:02.128Z,100.00
2022-09-16T01:33:40.472Z,100.00
2022-09-16T01:36:18.832Z,100.00
2022-09-16T01:39:00.669Z,100.00
2022-09-16T01:41:43.265Z,100.00
2022-09-16T01:44:21.737Z,100.00
2022-09-16T01:47:00.295Z,100.00
2022-09-16T01:49:38.871Z,100.00
2022-09-16T01:52:15.540Z,100.00
2022-09-16T01:54:49.193Z,100.00
2022-09-16T01:57:21.108Z,100.00
2022-09-16T01:59:51.813Z,100.00
2022-09-16T02:02:26.365Z,100.00
2022-09-16T02:04:57.457Z,100.00
2022-09-16T02:07:31.131Z,100.00
2022-09-16T02:10:06.789Z,100.00
2022-09-16T02:12:38.853Z,100.00
2022-09-16T02:15:11.632Z,100.00
2022-09-16T02:17:46.899Z,100.00
2022-09-16T02:20:20.117Z,100.00
2022-09-16T02:22:50.622Z,100.00
2022-09-16T02:25:20.667Z,100.00
2022-09-16T02:27:50.645Z,100.00
2022-09-16T02:30:21.373Z,100.00
2022-09-16T02:32:55.905Z,100.00
2022-09-16T02:35:27.010Z,100.00
2022-09-16T02:37:59.415Z,100.00
2022-09-16T02:40:33.077Z,100.00
2022-09-16T02:43:01.733Z,100.00
2022-09-16T02:45:43.344Z,100.00
2022-09-16T02:48:18.783Z,100.00
2022-09-16T02:50:52.344Z,100.00
2022-09-16T02:53:28.877Z,100.00
2022-09-16T02:56:02.015Z,100.00
2022-09-16T02:58:30.652Z,100.00
2022-09-16T03:00:58.865Z,100.00
2022-09-16T03:03:28.104Z,100.00
2022-09-16T03:06:11.805Z,100.00
2022-09-16T03:08:41.052Z,100.00
2022-09-16T03:11:20.726Z,100.00
2022-09-16T03:13:55.929Z,100.00
2022-09-16T03:16:32.943Z,100.00
2022-09-16T03:19:16.037Z,100.00
2022-09-16T03:21:52.253Z,100.00
2022-09-16T03:24:31.073Z,100.00
2022-09-16T03:27:06.509Z,100.00
2022-09-16T03:29:41.504Z,100.00
2022-09-16T03:32:17.666Z,100.00
2022-09-16T03:34:53.674Z,100.00
2022-09-16T03:37:23.381Z,100.00
2022-09-16T03:39:53.695Z,100.00
2022-09-16T03:42:22.527Z,100.00
2022-09-16T03:44:50.786Z,100.00
2022-09-16T03:47:18.753Z,100.00
2022-09-16T03:49:48.096Z,100.00
2022-09-16T03:52:18.493Z,100.00
2022-09-16T03:54:46.414Z,100.00
2022-09-16T03:57:14.181Z,100.00
2022-09-16T03:59:42.196Z,100.00
2022-09-16T04:02:09.883Z,100.00
2022-09-16T04:04:37.609Z,100.00
2022-09-16T04:07:06.942Z,100.00
2022-09-16T04:09:37.215Z,100.00
2022-09-16T04:12:07.620Z,100.00
2022-09-16T04:14:35.962Z,100.00
2022-09-16T04:17:03.946Z,100.00
2022-09-16T04:19:31.696Z,100.00
2022-09-16T04:21:59.818Z,100.00
2022-09-16T04:24:28.968Z,100.00
2022-09-16T04:26:56.693Z,100.00
2022-09-16T04:29:24.833Z,100.00
2022-09-16T04:31:52.722Z,100.00
2022-09-16T04:34:20.468Z,100.00
2022-09-16T04:36:48.447Z,100.00
2022-09-16T04:39:16.799Z,100.00
2022-09-16T04:41:45.890Z,100.00
2022-09-16T04:44:15.164Z,100.00
2022-09-16T04:46:43.057Z,100.00
2022-09-16T04:49:12.747Z,100.00
2022-09-16T04:51:40.818Z,100.00
2022-09-16T04:54:09.438Z,100.00
2022-09-16T04:56:37.153Z,100.00
2022-09-16T04:59:06.745Z,100.00
2022-09-16T05:01:37.826Z,100.00
2022-09-16T05:04:08.413Z,100.00
2022-09-16T05:06:38.564Z,100.00
2022-09-16T05:09:06.649Z,100.00
2022-09-16T05:11:36.958Z,100.00
2022-09-16T05:14:08.759Z,100.00
2022-09-16T05:16:36.508Z,100.00
2022-09-16T05:19:05.560Z,100.00
2022-09-16T05:21:36.078Z,100.00
2022-09-16T05:24:08.205Z,100.00
2022-09-16T05:26:37.862Z,100.00
2022-09-16T05:29:10.301Z,100.00
2022-09-16T05:31:39.826Z,100.00
2022-09-16T05:34:12.463Z,100.00
2022-09-16T05:36:43.175Z,100.00
2022-09-16T05:39:28.180Z,100.00
2022-09-16T05:42:00.707Z,100.00
2022-09-16T05:44:30.023Z,100.00
2022-09-16T05:46:58.369Z,100.00
2022-09-16T05:49:26.348Z,100.00
2022-09-16T05:51:55.725Z,100.00
2022-09-16T05:54:25.160Z,100.00
2022-09-16T05:56:53.486Z,100.00
2022-09-16T05:59:23.484Z,100.00
2022-09-16T06:01:53.283Z,100.00
2022-09-16T06:04:21.268Z,100.00
2022-09-16T06:06:49.072Z,100.00
2022-09-16T06:09:18.764Z,100.00
2022-09-16T06:11:48.713Z,100.00
2022-09-16T06:14:18.176Z,100.00
2022-09-16T06:16:46.614Z,100.00
2022-09-16T06:19:17.851Z,100.00
2022-09-16T06:21:46.560Z,100.00
2022-09-16T06:24:16.889Z,100.00
2022-09-16T06:26:46.565Z,100.00
2022-09-16T06:29:15.221Z,100.00
2022-09-16T06:31:43.904Z,100.00
2022-09-16T06:34:18.665Z,100.00
2022-09-16T06:36:48.373Z,100.00
2022-09-16T06:39:17.086Z,100.00
2022-09-16T06:41:49.142Z,100.00
2022-09-16T06:44:17.237Z,100.00
2022-09-16T06:46:45.179Z,100.00
2022-09-16T06:49:13.146Z,100.00
2022-09-16T06:51:43.482Z,100.00
2022-09-16T06:54:11.837Z,100.00
2022-09-16T06:56:41.527Z,100.00
2022-09-16T06:59:11.234Z,100.00
2022-09-16T07:01:39.130Z,100.00
2022-09-16T07:04:10.572Z,100.00
2022-09-16T07:07:07.425Z,100.00
2022-09-16T07:09:28.418Z,100.00
2022-09-16T07:11:56.949Z,100.00
2022-09-16T07:14:24.709Z,100.00
2022-09-16T07:16:52.903Z,100.00
2022-09-16T07:19:21.881Z,100.00
2022-09-16T07:21:49.646Z,100.00
2022-09-16T07:24:18.202Z,100.00
2022-09-16T07:26:47.891Z,100.00
2022-09-16T07:29:20.515Z,100.00
2022-09-16T07:31:49.037Z,100.00
2022-09-16T07:34:17.316Z,100.00
2022-09-16T07:36:48.362Z,100.00
2022-09-16T07:39:18.704Z,100.00
2022-09-16T07:41:49.643Z,100.00
2022-09-16T07:44:19.970Z,100.00
2022-09-16T07:46:48.065Z,100.00
2022-09-16T07:49:17.221Z,100.00
2022-09-16T07:51:45.561Z,100.00
2022-09-16T07:54:15.474Z,100.00
2022-09-16T07:56:44.655Z,100.00
2022-09-16T07:59:18.365Z,100.00
2022-09-16T08:01:48.798Z,100.00
2022-09-16T08:04:17.846Z,100.00
2022-09-16T08:06:45.897Z,100.00
2022-09-16T08:12:05.369Z,100.00
2022-09-16T08:14:36.147Z,100.00
2022-09-16T08:17:04.823Z,100.00
2022-09-16T08:19:32.694Z,100.00
2022-09-16T08:22:00.611Z,100.00
2022-09-16T08:24:28.901Z,100.00
2022-09-16T08:29:29.916Z,100.00
2022-09-16T08:31:59.119Z,100.00
2022-09-16T08:34:26.896Z,100.00
2022-09-16T08:36:55.095Z,100.00
2022-09-16T08:39:22.933Z,100.00
2022-09-16T08:42:29.976Z,100.00
2022-09-16T08:45:10.022Z,100.00
2022-09-16T08:47:52.100Z,100.00
2022-09-16T08:50:23.425Z,100.00
2022-09-16T08:52:52.304Z,100.00
2022-09-16T08:55:25.684Z,100.00
2022-09-16T08:57:58.791Z,100.00
2022-09-16T09:00:26.644Z,100.00
2022-09-16T09:02:58.416Z,100.00
2022-09-16T09:05:48.385Z,100.00
2022-09-16T09:08:31.515Z,100.00
2022-09-16T09:11:06.117Z,100.00
2022-09-16T09:13:57.148Z,100.00
2022-09-16T09:16:34.347Z,100.00
2022-09-16T09:19:13.764Z,100.00
2022-09-16T09:21:50.814Z,100.00
2022-09-16T09:24:32.708Z,100.00
2022-09-16T09:27:07.213Z,100.00
2022-09-16T09:29:46.233Z,100.00
2022-09-16T09:32:24.895Z,100.00
2022-09-16T09:35:08.429Z,100.00
2022-09-16T09:37:51.581Z,100.00
2022-09-16T09:40:27.570Z,100.00
2022-09-16T09:43:07.560Z,100.00
2022-09-16T09:45:39.612Z,100.00
2022-09-16T09:48:19.500Z,100.00
2022-09-16T09:50:50.819Z,100.00
2022-09-16T09:53:25.192Z,100.00
2022-09-16T09:56:01.283Z,100.00
2022-09-16T09:58:35.096Z,100.00
2022-09-16T10:01:03.610Z,100.00
2022-09-16T10:03:32.228Z,100.00
2022-09-16T10:06:01.601Z,100.00
2022-09-16T10:08:34.756Z,100.00
2022-09-16T10:11:04.318Z,100.00
2022-09-16T10:13:32.375Z,100.00
2022-09-16T10:16:15.278Z,100.00
2022-09-16T10:18:44.966Z,100.00
2022-09-16T10:21:17.632Z,100.00
2022-09-16T10:23:55.175Z,100.00
2022-09-16T10:26:25.231Z,100.00
2022-09-16T10:29:01.899Z,100.00
2022-09-16T10:31:36.443Z,100.00
2022-09-16T10:34:06.710Z,100.00
2022-09-16T10:36:36.731Z,100.00
2022-09-16T10:39:06.027Z,100.00
2022-09-16T10:41:36.616Z,100.00
2022-09-16T10:44:08.668Z,100.00
2022-09-16T10:46:37.889Z,100.00
2022-09-16T10:49:12.882Z,100.00
2022-09-16T10:51:42.423Z,100.00
2022-09-16T10:54:25.928Z,100.00
2022-09-16T10:56:54.045Z,100.00
2022-09-16T10:59:22.246Z,100.00
2022-09-16T11:01:59.546Z,100.00
2022-09-16T11:04:40.099Z,100.00
2022-09-16T11:07:20.351Z,100.00
2022-09-16T11:09:57.188Z,100.00
2022-09-16T11:12:44.923Z,100.00
2022-09-16T11:15:26.693Z,100.00
2022-09-16T11:18:09.596Z,100.00
2022-09-16T11:20:52.196Z,100.00
2022-09-16T11:23:35.959Z,100.00
2022-09-16T11:26:11.621Z,100.00
2022-09-16T11:28:52.255Z,100.00
2022-09-16T11:31:34.623Z,100.00
2022-09-16T11:34:06.276Z,100.00
2022-09-16T11:36:45.925Z,100.00
2022-09-16T11:39:31.911Z,100.00
2022-09-16T11:42:04.731Z,100.00
2022-09-16T11:44:42.831Z,100.00
2022-09-16T11:47:40.474Z,100.00
2022-09-16T11:50:23.811Z,96.44
2022-09-16T11:53:10.321Z,92.38
2022-09-16T11:55:51.585Z,93.19
2022-09-16T11:58:28.191Z,92.87
2022-09-16T12:01:02.123Z,84.52
2022-09-16T12:03:33.141Z,89.12
2022-09-16T12:06:08.161Z,88.77
2022-09-16T12:08:49.793Z,89.44
2022-09-16T12:11:25.410Z,91.90
2022-09-16T12:14:05.662Z,91.55
2022-09-16T12:16:40.557Z,95.82
2022-09-16T12:19:17.081Z,97.16
2022-09-16T12:21:57.400Z,94.77
2022-09-16T12:24:37.148Z,100.00
2022-09-16T12:27:12.759Z,100.00
2022-09-16T12:29:47.303Z,100.00
2022-09-16T12:32:21.017Z,100.00
2022-09-16T12:34:55.606Z,100.00
2022-09-16T12:37:38.399Z,100.00
2022-09-16T12:40:24.225Z,100.00
2022-09-16T12:43:31.295Z,100.00
2022-09-16T12:46:28.596Z,100.00
2022-09-16T12:49:20.861Z,100.00
2022-09-16T12:51:59.351Z,100.00
2022-09-16T12:55:06.794Z,100.00
2022-09-16T12:57:46.271Z,100.00
2022-09-16T13:00:21.139Z,100.00
2022-09-16T13:02:53.121Z,100.00
2022-09-16T13:05:22.953Z,100.00
2022-09-16T13:07:54.264Z,100.00
2022-09-16T13:10:54.563Z,100.00
2022-09-16T13:13:30.628Z,100.00
2022-09-16T13:16:02.121Z,100.00
2022-09-16T13:18:43.068Z,100.00
2022-09-16T13:21:23.940Z,100.00
2022-09-16T13:24:01.695Z,100.00
2022-09-16T13:26:41.224Z,100.00
2022-09-16T13:29:30.776Z,100.00
2022-09-16T13:32:00.276Z,100.00
2022-09-16T13:34:28.648Z,100.00
2022-09-16T13:36:56.442Z,100.00
2022-09-16T13:39:32.441Z,100.00
2022-09-16T13:42:12.366Z,100.00
2022-09-16T13:44:43.952Z,100.00
2022-09-16T13:47:34.111Z,100.00
2022-09-16T13:50:11.423Z,100.00
2022-09-16T13:52:40.282Z,100.00
2022-09-16T13:55:21.506Z,100.00
2022-09-16T13:58:00.758Z,100.00
2022-09-16T14:00:37.544Z,100.00
2022-09-16T14:03:28.911Z,100.00
2022-09-16T14:06:18.086Z,100.00
2022-09-16T14:08:56.468Z,100.00
2022-09-16T14:11:33.487Z,100.00
2022-09-16T14:14:06.120Z,100.00
2022-09-16T14:16:36.361Z,100.00
2022-09-16T14:19:08.490Z,100.00
2022-09-16T14:21:38.415Z,100.00
2022-09-16T14:24:16.985Z,100.00
2022-09-16T14:26:55.274Z,100.00
2022-09-16T14:29:24.622Z,100.00
2022-09-16T14:31:56.021Z,100.00
2022-09-16T14:34:29.310Z,100.00
2022-09-16T14:36:57.980Z,100.00
2022-09-16T14:39:27.809Z,100.00
2022-09-16T14:41:58.558Z,100.00
2022-09-16T14:44:28.844Z,100.00
2022-09-16T14:47:07.528Z,100.00
2022-09-16T14:49:39.486Z,100.00
2022-09-16T14:52:19.500Z,100.00
2022-09-16T14:54:48.197Z,100.00
2022-09-16T14:57:20.685Z,100.00
2022-09-16T14:59:48.771Z,100.00
2022-09-16T15:02:20.429Z,100.00
2022-09-16T15:04:54.346Z,100.00
2022-09-16T15:07:27.884Z,100.00
2022-09-16T15:10:02.496Z,100.00
2022-09-16T15:12:34.170Z,100.00
2022-09-16T15:15:06.205Z,100.00
2022-09-16T15:17:34.216Z,100.00
2022-09-16T15:20:03.776Z,100.00
2022-09-16T15:22:31.834Z,100.00
2022-09-16T15:25:00.284Z,100.00
2022-09-16T15:27:30.090Z,100.00
2022-09-16T15:30:01.029Z,100.00
2022-09-16T15:32:31.762Z,100.00
2022-09-16T15:35:21.189Z,100.00
2022-09-16T15:37:49.769Z,100.00
2022-09-16T15:40:32.811Z,100.00
2022-09-16T15:43:15.942Z,100.00
2022-09-16T15:45:45.480Z,100.00
2022-09-16T15:48:18.084Z,100.00
2022-09-16T15:50:52.351Z,100.00
2022-09-16T15:53:34.776Z,100.00
2022-09-16T15:56:08.857Z,100.00
2022-09-16T15:58:40.872Z,100.00
2022-09-16T16:01:14.951Z,100.00
2022-09-16T16:03:54.722Z,100.00
2022-09-16T16:06:50.496Z,100.00
2022-09-16T16:09:33.865Z,100.00
2022-09-16T16:12:03.502Z,100.00
2022-09-16T16:14:33.076Z,100.00
2022-09-16T16:17:12.821Z,100.00
2022-09-16T16:19:42.689Z,100.00
2022-09-16T16:22:12.413Z,100.00
2022-09-16T16:24:40.552Z,100.00
2022-09-16T16:27:09.613Z,100.00
2022-09-16T16:29:38.875Z,100.00
2022-09-16T16:32:08.892Z,100.00
2022-09-16T16:34:38.622Z,100.00
2022-09-16T16:37:07.305Z,100.00
2022-09-16T16:39:36.686Z,100.00
2022-09-16T16:42:05.870Z,100.00
2022-09-16T16:44:34.041Z,100.00
2022-09-16T16:47:02.613Z,100.00
2022-09-16T16:49:30.642Z,100.00
2022-09-16T16:51:58.784Z,100.00
2022-09-16T16:54:27.400Z,100.00
2022-09-16T16:56:58.205Z,100.00
2022-09-16T16:59:26.095Z,100.00
2022-09-16T17:01:56.189Z,100.00
2022-09-16T17:04:25.894Z,100.00
2022-09-16T17:07:14.473Z,100.00
2022-09-16T17:09:42.029Z,100.00
2022-09-16T17:12:12.803Z,100.00
2022-09-16T17:14:40.810Z,100.00
2022-09-16T17:17:08.921Z,100.00
2022-09-16T17:19:36.664Z,100.00
2022-09-16T17:22:04.454Z,100.00
2022-09-16T17:24:33.105Z,100.00
2022-09-16T17:27:01.487Z,100.00
2022-09-16T17:29:30.930Z,100.00
2022-09-16T17:32:02.313Z,100.00
2022-09-16T17:34:30.143Z,100.00
2022-09-16T17:36:58.409Z,100.00
2022-09-16T17:39:29.329Z,100.00
2022-09-16T17:41:57.423Z,100.00
2022-09-16T17:44:25.474Z,100.00
2022-09-16T17:46:55.065Z,100.00
2022-09-16T17:49:24.212Z,100.00
2022-09-16T17:51:53.753Z,100.00
2022-09-16T17:54:23.145Z,100.00
2022-09-16T17:56:51.142Z,100.00
2022-09-16T17:59:19.708Z,100.00
2022-09-16T18:01:48.537Z,100.00
2022-09-16T18:04:17.694Z,100.00
2022-09-16T18:06:47.369Z,100.00
2022-09-16T18:09:17.218Z,100.00
2022-09-16T18:11:45.079Z,100.00
2022-09-16T18:14:14.406Z,100.00
2022-09-16T18:16:43.042Z,100.00
2022-09-16T18:19:10.953Z,100.00
2022-09-16T18:21:40.385Z,100.00
2022-09-16T18:24:13.246Z,100.00
2022-09-16T18:26:41.986Z,100.00
2022-09-16T18:29:12.063Z,100.00
2022-09-16T18:31:43.770Z,100.00
2022-09-16T18:34:13.053Z,100.00
2022-09-16T18:36:42.769Z,100.00
2022-09-16T18:39:14.138Z,100.00
2022-09-16T18:41:44.256Z,100.00
2022-09-16T18:44:14.493Z,100.00
2022-09-16T18:46:42.708Z,100.00
2022-09-16T18:49:13.474Z,100.00
2022-09-16T18:51:49.824Z,100.00
2022-09-16T18:54:24.503Z,100.00
2022-09-16T18:56:55.470Z,100.00
2022-09-16T18:59:26.803Z,100.00
2022-09-16T19:01:56.945Z,100.00
2022-09-16T19:04:26.885Z,100.00
2022-09-16T19:06:59.314Z,100.00
2022-09-16T19:09:27.589Z,100.00
2022-09-16T19:11:56.114Z,100.00
2022-09-16T19:14:27.284Z,100.00
2022-09-16T19:16:55.498Z,100.00
2022-09-16T19:19:23.643Z,100.00
2022-09-16T19:21:51.708Z,100.00
2022-09-16T19:24:22.980Z,100.00
2022-09-16T19:26:53.153Z,100.00
2022-09-16T19:29:22.060Z,100.00
2022-09-16T19:31:52.710Z,100.00
2022-09-16T19:34:21.613Z,100.00
2022-09-16T19:36:49.963Z,100.00
2022-09-16T19:39:18.331Z,100.00
2022-09-16T19:41:47.452Z,100.00
2022-09-16T19:44:16.981Z,100.00
2022-09-16T19:46:46.924Z,100.00
2022-09-16T19:49:17.314Z,100.00
2022-09-16T19:51:45.337Z,100.00
2022-09-16T19:54:13.569Z,100.00
2022-09-16T19:56:44.162Z,100.00
2022-09-16T19:59:16.545Z,100.00
2022-09-16T20:01:44.987Z,100.00
2022-09-16T20:04:12.902Z,100.00
2022-09-16T20:06:42.533Z,100.00
2022-09-16T20:09:14.422Z,100.00
2022-09-16T20:11:44.007Z,100.00
2022-09-16T20:14:15.580Z,100.00
2022-09-16T20:16:45.217Z,100.00
2022-09-16T20:19:14.809Z,100.00
2022-09-16T20:21:43.280Z,100.00
2022-09-16T20:24:15.511Z,100.00
2022-09-16T20:26:43.414Z,100.00
2022-09-16T20:29:11.358Z,100.00
2022-09-16T20:31:39.709Z,100.00
2022-09-16T20:34:08.916Z,100.00
2022-09-16T20:36:38.262Z,100.00
2022-09-16T20:39:07.337Z,100.00
2022-09-16T20:41:37.370Z,100.00
2022-09-16T20:44:05.879Z,100.00
2022-09-16T20:46:35.654Z,100.00
2022-09-16T20:49:06.513Z,100.00
2022-09-16T20:51:36.174Z,100.00
2022-09-16T20:54:07.778Z,100.00
2022-09-16T20:56:39.846Z,100.00
2022-09-16T20:59:08.739Z,100.00
2022-09-16T21:01:37.944Z,100.00
2022-09-16T21:04:08.006Z,100.00
2022-09-16T21:06:37.473Z,100.00
2022-09-16T21:09:08.118Z,100.00
2022-09-16T21:11:36.419Z,100.00
2022-09-16T21:14:07.575Z,100.00
2022-09-16T21:16:36.982Z,100.00
2022-09-16T21:19:09.144Z,100.00
2022-09-16T21:21:39.837Z,100.00
2022-09-16T21:24:09.836Z,100.00
2022-09-16T21:26:39.199Z,100.00
2022-09-16T21:29:11.466Z,100.00
2022-09-16T21:31:41.066Z,100.00
2022-09-16T21:34:13.706Z,100.00
2022-09-16T21:36:44.469Z,100.00
2022-09-16T21:39:15.326Z,100.00
2022-09-16T21:41:45.392Z,100.00
2022-09-16T21:44:14.514Z,100.00
2022-09-16T21:46:45.443Z,100.00
2022-09-16T21:49:20.890Z,100.00
2022-09-16T21:51:50.145Z,100.00
2022-09-16T21:54:20.452Z,100.00
2022-09-16T21:56:49.317Z,100.00
2022-09-16T21:59:19.438Z,100.00
2022-09-16T22:01:47.790Z,100.00
2022-09-16T22:04:18.165Z,100.00
2022-09-16T22:06:46.233Z,100.00
2022-09-16T22:09:15.613Z,100.00
2022-09-16T22:11:43.837Z,100.00
2022-09-16T22:14:12.437Z,100.00
2022-09-16T22:16:41.563Z,100.00
2022-09-16T22:19:12.112Z,100.00
2022-09-16T22:21:42.156Z,100.00
2022-09-16T22:24:10.796Z,100.00
2022-09-16T22:26:40.514Z,100.00
2022-09-16T22:29:09.330Z,100.00
2022-09-16T22:31:39.497Z,100.00
2022-09-16T22:34:07.845Z,100.00
2022-09-16T22:36:37.223Z,100.00
2022-09-16T22:39:08.019Z,100.00
2022-09-16T22:41:35.782Z,100.00
2022-09-16T22:44:05.557Z,100.00
2022-09-16T22:46:35.791Z,100.00
2022-09-16T22:49:03.653Z,100.00
2022-09-16T22:51:32.754Z,100.00
2022-09-16T22:54:00.762Z,100.00
2022-09-16T22:56:32.091Z,100.00
2022-09-16T22:59:01.984Z,100.00
2022-09-16T23:01:33.184Z,100.00
2022-09-16T23:04:12.680Z,100.00
2022-09-16T23:06:41.140Z,100.00
2022-09-16T23:09:10.082Z,100.00
2022-09-16T23:11:38.114Z,100.00
2022-09-16T23:14:07.158Z,100.00
2022-09-16T23:16:38.341Z,100.00
2022-09-16T23:19:09.370Z,100.00
2022-09-16T23:21:38.470Z,100.00
2022-09-16T23:24:08.942Z,100.00
2022-09-16T23:26:39.342Z,100.00
2022-09-16T23:29:09.381Z,100.00
2022-09-16T23:31:40.498Z,100.00
2022-09-16T23:34:12.213Z,100.00
2022-09-16T23:36:40.265Z,100.00
2022-09-16T23:39:09.051Z,100.00
2022-09-16T23:41:38.428Z,100.00
2022-09-16T23:44:06.781Z,100.00
2022-09-16T23:46:34.627Z,100.00
2022-09-16T23:49:04.266Z,100.00
2022-09-16T23:51:32.935Z,100.00
2022-09-16T23:54:01.033Z,100.00
2022-09-16T23:56:29.211Z,100.00
2022-09-16T23:59:00.754Z,100.00
